Time;durP1;ratioP1;P1;durP2;ratioP2;P2;SDS_P1;SDS_P2;PMS_P1;PMS_P2;Temp;Humidity;BMP_temperature;BMP_pressure;BME280_temperature;BME280_humidity;BME280_pressure;Samples;Min_cycle;Max_cycle;Signal;HPM_P1;HPM_P2
2022/08/07 00:01:18;;;;;;;0.00;0.00;;;;;;;;;;5101462;28;20245;-66
2022/08/07 00:03:44;;;;;;;0.00;0.00;;;;;;;;;;5109277;28;20498;-65
2022/08/07 00:06:11;;;;;;;0.00;0.00;;;;;;;;;;5100839;28;20514;-67
2022/08/07 00:08:37;;;;;;;0.00;0.00;;;;;;;;;;5109416;28;20223;-66
2022/08/07 00:11:04;;;;;;;0.00;0.00;;;;;;;;;;5099962;28;20246;-66
2022/08/07 00:13:30;;;;;;;0.00;0.00;;;;;;;;;;5110434;28;20228;-65
2022/08/07 00:15:58;;;;;;;0.00;0.00;;;;;;;;;;5099042;28;20345;-66
2022/08/07 00:18:25;;;;;;;0.10;0.10;;;;;;;;;;5111284;28;20206;-67
2022/08/07 00:20:53;;;;;;;0.08;0.08;;;;;;;;;;5098272;28;20398;-66
2022/08/07 00:23:19;;;;;;;0.00;0.00;;;;;;;;;;5111470;28;20203;-66
2022/08/07 00:25:45;;;;;;;0.00;0.00;;;;;;;;;;5097185;28;20239;-66
2022/08/07 00:28:12;;;;;;;0.00;0.00;;;;;;;;;;5112455;28;20228;-67
2022/08/07 00:30:38;;;;;;;0.00;0.00;;;;;;;;;;5096407;28;20290;-66
2022/08/07 00:33:06;;;;;;;0.08;0.08;;;;;;;;;;5113917;28;20193;-66
2022/08/07 00:35:32;;;;;;;0.00;0.00;;;;;;;;;;5095431;28;20334;-66
2022/08/07 00:37:59;;;;;;;0.00;0.00;;;;;;;;;;5114426;28;20198;-67
2022/08/07 00:40:28;;;;;;;0.20;0.20;;;;;;;;;;5095007;28;20253;-66
2022/08/07 00:42:55;;;;;;;0.00;0.00;;;;;;;;;;5114891;28;20208;-66
2022/08/07 00:45:21;;;;;;;0.00;0.00;;;;;;;;;;5094549;28;20254;-67
2022/08/07 00:47:48;;;;;;;0.05;0.05;;;;;;;;;;5115552;28;20517;-67
2022/08/07 00:50:16;;;;;;;0.00;0.00;;;;;;;;;;5092646;28;20286;-65
2022/08/07 00:52:42;;;;;;;0.08;0.08;;;;;;;;;;5116248;28;20229;-66
2022/08/07 00:55:09;;;;;;;0.10;0.10;;;;;;;;;;5092499;28;20205;-67
2022/08/07 00:57:35;;;;;;;0.00;0.00;;;;;;;;;;5117621;28;20259;-66
2022/08/07 01:00:03;;;;;;;0.03;0.03;;;;;;;;;;5102305;28;20237;-68
2022/08/07 01:02:30;;;;;;;0.00;0.00;;;;;;;;;;5090374;28;20214;-66
2022/08/07 01:04:57;;;;;;;0.10;0.10;;;;;;;;;;5102216;28;20226;-66
2022/08/07 01:07:25;;;;;;;0.10;0.10;;;;;;;;;;5107285;28;20385;-66
2022/08/07 01:09:51;;;;;;;0.10;0.10;;;;;;;;;;5102248;28;20215;-67
2022/08/07 01:12:17;;;;;;;0.10;0.10;;;;;;;;;;5110670;28;20241;-66
2022/08/07 01:14:44;;;;;;;0.10;0.10;;;;;;;;;;5106082;28;20492;-66
2022/08/07 01:17:10;;;;;;;0.00;0.00;;;;;;;;;;5111254;28;20247;-66
2022/08/07 01:19:37;;;;;;;0.10;0.10;;;;;;;;;;5106139;28;20258;-67
2022/08/07 01:22:05;;;;;;;0.10;0.10;;;;;;;;;;5110567;28;20243;-66
2022/08/07 01:24:32;;;;;;;0.00;0.00;;;;;;;;;;5106177;28;20216;-66
2022/08/07 01:26:59;;;;;;;0.10;0.10;;;;;;;;;;5110219;28;20236;-67
2022/08/07 01:29:26;;;;;;;0.00;0.00;;;;;;;;;;5106383;28;20211;-66
2022/08/07 01:31:53;;;;;;;0.00;0.00;;;;;;;;;;5109220;28;20272;-67
2022/08/07 01:34:19;;;;;;;0.10;0.10;;;;;;;;;;5107212;28;20235;-66
2022/08/07 01:36:46;;;;;;;0.08;0.08;;;;;;;;;;5108523;28;20238;-66
2022/08/07 01:39:13;;;;;;;0.00;0.00;;;;;;;;;;5107994;28;20395;-66
2022/08/07 01:41:42;;;;;;;0.00;0.00;;;;;;;;;;5107360;28;20335;-67
2022/08/07 01:44:09;;;;;;;0.10;0.10;;;;;;;;;;5108510;28;20243;-66
2022/08/07 01:46:36;;;;;;;0.00;0.00;;;;;;;;;;5106463;28;20302;-66
2022/08/07 01:49:02;;;;;;;0.10;0.10;;;;;;;;;;5109292;28;20415;-67
2022/08/07 01:51:29;;;;;;;0.05;0.05;;;;;;;;;;5105618;28;20311;-66
2022/08/07 01:53:57;;;;;;;0.00;0.00;;;;;;;;;;5109839;28;20450;-66
2022/08/07 01:56:26;;;;;;;0.10;0.10;;;;;;;;;;5104814;28;20246;-66
2022/08/07 01:58:53;;;;;;;0.00;0.00;;;;;;;;;;5110392;28;20279;-66
2022/08/07 02:01:22;;;;;;;0.00;0.00;;;;;;;;;;5104319;28;20628;-67
2022/08/07 02:03:51;;;;;;;0.00;0.00;;;;;;;;;;5110440;28;20210;-66
2022/08/07 02:06:20;;;;;;;0.10;0.10;;;;;;;;;;5104041;28;20240;-66
2022/08/07 02:08:47;;;;;;;0.03;0.03;;;;;;;;;;5110727;28;20349;-66
2022/08/07 02:11:13;;;;;;;0.00;0.00;;;;;;;;;;5103547;28;20311;-67
2022/08/07 02:13:42;;;;;;;0.00;0.00;;;;;;;;;;5111493;28;20242;-65
2022/08/07 02:16:08;;;;;;;0.00;0.00;;;;;;;;;;5102584;28;20299;-66
2022/08/07 02:18:36;;;;;;;0.00;0.00;;;;;;;;;;5112043;28;20201;-66
2022/08/07 02:21:03;;;;;;;0.00;0.00;;;;;;;;;;5101878;28;20236;-67
2022/08/07 02:23:31;;;;;;;0.00;0.00;;;;;;;;;;5111214;28;20297;-69
2022/08/07 02:25:58;;;;;;;0.10;0.10;;;;;;;;;;5100759;28;20551;-66
2022/08/07 02:28:26;;;;;;;0.10;0.10;;;;;;;;;;5112833;28;20296;-66
2022/08/07 02:30:55;;;;;;;0.10;0.10;;;;;;;;;;5100164;28;20303;-67
2022/08/07 02:33:22;;;;;;;0.00;0.00;;;;;;;;;;5113719;28;20237;-65
2022/08/07 02:35:49;;;;;;;0.10;0.10;;;;;;;;;;5099405;28;20262;-67
2022/08/07 02:38:15;;;;;;;0.00;0.00;;;;;;;;;;5113688;28;20228;-66
2022/08/07 02:40:43;;;;;;;0.10;0.10;;;;;;;;;;5098698;28;20562;-66
2022/08/07 02:43:09;;;;;;;0.00;0.00;;;;;;;;;;5115006;28;20395;-66
2022/08/07 02:45:38;;;;;;;0.00;0.00;;;;;;;;;;5097826;28;20289;-64
2022/08/07 02:48:06;;;;;;;0.03;0.03;;;;;;;;;;5114963;28;20253;-66
2022/08/07 02:50:34;;;;;;;0.10;0.10;;;;;;;;;;5097174;28;20412;-65
2022/08/07 02:53:03;;;;;;;0.00;0.00;;;;;;;;;;5115771;28;20300;-66
2022/08/07 02:55:30;;;;;;;0.10;0.10;;;;;;;;;;5096771;28;20240;-65
2022/08/07 02:57:58;;;;;;;0.00;0.00;;;;;;;;;;5116306;28;20231;-66
2022/08/07 03:00:26;;;;;;;0.00;0.00;;;;;;;;;;5096201;28;20208;-66
2022/08/07 03:02:52;;;;;;;0.00;0.00;;;;;;;;;;5116398;28;20268;-66
2022/08/07 03:05:20;;;;;;;0.10;0.10;;;;;;;;;;5095181;28;20250;-66
2022/08/07 03:07:47;;;;;;;0.13;0.13;;;;;;;;;;5117325;28;20216;-65
2022/08/07 03:10:15;;;;;;;0.10;0.10;;;;;;;;;;5094036;28;20280;-66
2022/08/07 03:12:42;;;;;;;0.10;0.10;;;;;;;;;;5118073;28;20260;-66
2022/08/07 03:15:10;;;;;;;0.00;0.00;;;;;;;;;;5093580;28;20223;-66
2022/08/07 03:17:36;;;;;;;0.00;0.00;;;;;;;;;;5118604;28;20439;-66
2022/08/07 03:20:03;;;;;;;0.10;0.10;;;;;;;;;;5103585;28;20446;-67
2022/08/07 03:22:31;;;;;;;0.13;0.13;;;;;;;;;;5108630;28;20571;-66
2022/08/07 03:24:59;;;;;;;0.10;0.10;;;;;;;;;;5102819;28;20283;-67
2022/08/07 03:27:26;;;;;;;0.05;0.05;;;;;;;;;;5108315;28;20235;-66
2022/08/07 03:29:52;;;;;;;0.10;0.10;;;;;;;;;;5103212;28;20214;-66
2022/08/07 03:32:22;;;;;;;0.00;0.00;;;;;;;;;;5108401;28;20268;-66
2022/08/07 03:34:49;;;;;;;0.00;0.00;;;;;;;;;;5103021;28;20205;-66
2022/08/07 03:37:18;;;;;;;0.10;0.10;;;;;;;;;;5107880;28;20304;-66
2022/08/07 03:39:46;;;;;;;0.10;0.10;;;;;;;;;;5103078;28;20211;-66
2022/08/07 03:42:14;;;;;;;0.10;0.10;;;;;;;;;;5108297;28;20266;-65
2022/08/07 03:44:40;;;;;;;0.10;0.10;;;;;;;;;;5103269;28;20276;-66
2022/08/07 03:47:07;;;;;;;0.05;0.05;;;;;;;;;;5107964;28;20285;-66
2022/08/07 03:49:34;;;;;;;0.10;0.10;;;;;;;;;;5103257;28;20210;-66
2022/08/07 03:52:00;;;;;;;0.00;0.00;;;;;;;;;;5107251;28;20248;-66
2022/08/07 03:54:27;;;;;;;0.10;0.10;;;;;;;;;;5103549;28;20281;-66
2022/08/07 03:56:55;;;;;;;0.10;0.10;;;;;;;;;;5105911;28;20247;-66
2022/08/07 03:59:22;;;;;;;0.03;0.03;;;;;;;;;;5104270;28;20215;-66
2022/08/07 04:01:49;;;;;;;0.10;0.10;;;;;;;;;;5105466;28;20343;-65
2022/08/07 04:04:16;;;;;;;0.10;0.10;;;;;;;;;;5104221;28;20281;-66
2022/08/07 04:06:43;;;;;;;0.03;0.03;;;;;;;;;;5105009;28;20577;-65
2022/08/07 04:09:09;;;;;;;0.10;0.10;;;;;;;;;;5105639;28;20229;-66
2022/08/07 04:11:37;;;;;;;0.10;0.10;;;;;;;;;;5103994;28;20244;-66
2022/08/07 04:14:04;;;;;;;0.00;0.00;;;;;;;;;;5106366;28;20212;-66
2022/08/07 04:16:32;;;;;;;0.08;0.08;;;;;;;;;;5103159;28;20239;-66
2022/08/07 04:19:00;;;;;;;0.03;0.03;;;;;;;;;;5106713;28;20264;-66
2022/08/07 04:21:26;;;;;;;0.00;0.00;;;;;;;;;;5102365;28;20269;-67
2022/08/07 04:23:53;;;;;;;0.10;0.10;;;;;;;;;;5107804;28;20379;-66
2022/08/07 04:26:19;;;;;;;0.10;0.10;;;;;;;;;;5101485;28;20373;-67
2022/08/07 04:28:45;;;;;;;0.10;0.10;;;;;;;;;;5108736;28;20378;-67
2022/08/07 04:31:13;;;;;;;0.10;0.10;;;;;;;;;;5100562;28;20257;-66
2022/08/07 04:33:40;;;;;;;0.10;0.10;;;;;;;;;;5109393;28;20280;-65
2022/08/07 04:36:07;;;;;;;0.00;0.00;;;;;;;;;;5099642;28;20302;-67
2022/08/07 04:38:34;;;;;;;0.10;0.10;;;;;;;;;;5109769;28;20457;-64
2022/08/07 04:41:00;;;;;;;0.10;0.10;;;;;;;;;;5098956;28;20395;-64
2022/08/07 04:43:28;;;;;;;0.00;0.00;;;;;;;;;;5110655;28;20214;-64
2022/08/07 04:45:59;;;;;;;0.00;0.00;;;;;;;;;;5099521;28;20290;-65
2022/08/07 04:48:30;;;;;;;0.00;0.00;;;;;;;;;;5114716;28;20236;-64
2022/08/07 04:51:01;;;;;;;0.10;0.10;;;;;;;;;;5102438;28;20516;-64
2022/08/07 04:53:31;;;;;;;0.10;0.10;;;;;;;;;;5114465;28;20415;-64
2022/08/07 04:56:01;;;;;;;0.10;0.10;;;;;;;;;;5102596;28;20396;-67
2022/08/07 04:58:33;;;;;;;0.10;0.10;;;;;;;;;;5114219;28;20201;-64
2022/08/07 05:01:03;;;;;;;0.00;0.00;;;;;;;;;;5103140;28;20604;-66
2022/08/07 05:03:36;;;;;;;0.00;0.00;;;;;;;;;;5113914;28;20205;-64
2022/08/07 05:06:05;;;;;;;0.00;0.00;;;;;;;;;;5103123;28;20500;-65
2022/08/07 05:08:36;;;;;;;0.10;0.10;;;;;;;;;;5113697;28;20229;-65
2022/08/07 05:11:05;;;;;;;0.00;0.00;;;;;;;;;;5103323;28;20234;-64
2022/08/07 05:13:35;;;;;;;0.03;0.03;;;;;;;;;;5113576;28;20204;-64
2022/08/07 05:16:03;;;;;;;0.00;0.00;;;;;;;;;;5103079;28;20314;-64
2022/08/07 05:18:33;;;;;;;0.00;0.00;;;;;;;;;;5113504;28;20205;-64
2022/08/07 05:21:01;;;;;;;0.10;0.10;;;;;;;;;;5102369;28;20371;-63
2022/08/07 05:23:31;;;;;;;0.10;0.10;;;;;;;;;;5113684;28;20292;-67
2022/08/07 05:25:59;;;;;;;0.00;0.00;;;;;;;;;;5102166;28;20239;-69
2022/08/07 05:28:26;;;;;;;0.00;0.00;;;;;;;;;;5113728;28;20307;-69
2022/08/07 05:30:53;;;;;;;0.10;0.10;;;;;;;;;;5101258;28;20245;-69
2022/08/07 05:33:21;;;;;;;0.05;0.05;;;;;;;;;;5114773;28;20534;-70
2022/08/07 05:35:48;;;;;;;0.10;0.10;;;;;;;;;;5100799;28;20431;-70
2022/08/07 05:38:16;;;;;;;0.03;0.03;;;;;;;;;;5114976;28;20203;-69
2022/08/07 05:40:44;;;;;;;0.10;0.10;;;;;;;;;;5099904;28;20262;-74
2022/08/07 05:43:10;;;;;;;0.00;0.00;;;;;;;;;;5115784;28;20204;-72
2022/08/07 05:45:36;;;;;;;0.00;0.00;;;;;;;;;;5099172;28;20499;-72
2022/08/07 05:48:03;;;;;;;0.08;0.08;;;;;;;;;;5116396;28;20225;-74
2022/08/07 05:50:32;;;;;;;0.08;0.08;;;;;;;;;;5098483;28;20438;-75
2022/08/07 05:53:00;;;;;;;0.00;0.00;;;;;;;;;;5117184;28;20267;-72
2022/08/07 05:55:26;;;;;;;0.10;0.10;;;;;;;;;;5097968;28;20319;-75
2022/08/07 05:57:54;;;;;;;0.10;0.10;;;;;;;;;;5117931;28;20365;-74
2022/08/07 06:00:21;;;;;;;0.00;0.00;;;;;;;;;;5096689;28;20212;-66
2022/08/07 06:02:48;;;;;;;0.00;0.00;;;;;;;;;;5118893;28;20265;-72
2022/08/07 06:05:15;;;;;;;0.10;0.10;;;;;;;;;;5096152;28;20207;-66
2022/08/07 06:07:41;;;;;;;0.00;0.00;;;;;;;;;;5119782;28;20195;-66
2022/08/07 06:10:10;;;;;;;0.10;0.10;;;;;;;;;;5094681;28;20218;-65
2022/08/07 06:12:37;;;;;;;0.05;0.05;;;;;;;;;;5120621;28;20532;-65
2022/08/07 06:15:04;;;;;;;0.03;0.03;;;;;;;;;;5106117;28;20237;-65
2022/08/07 06:17:31;;;;;;;0.10;0.10;;;;;;;;;;5093039;28;20525;-66
2022/08/07 06:19:58;;;;;;;0.10;0.10;;;;;;;;;;5104979;28;20231;-66
2022/08/07 06:22:25;;;;;;;0.10;0.10;;;;;;;;;;5110004;28;20576;-66
2022/08/07 06:24:51;;;;;;;0.00;0.00;;;;;;;;;;5104891;28;20206;-65
2022/08/07 06:27:23;;;;;;;0.00;0.00;;;;;;;;;;5110207;28;20582;-67
2022/08/07 06:29:49;;;;;;;0.10;0.10;;;;;;;;;;5104651;28;20239;-66
2022/08/07 06:32:16;;;;;;;0.10;0.10;;;;;;;;;;5109996;28;20302;-66
2022/08/07 06:34:42;;;;;;;0.00;0.00;;;;;;;;;;5104814;28;20211;-67
2022/08/07 06:37:08;;;;;;;0.10;0.10;;;;;;;;;;5109905;28;20245;-66
2022/08/07 06:39:35;;;;;;;0.03;0.03;;;;;;;;;;5104663;28;20201;-66
2022/08/07 06:42:03;;;;;;;0.00;0.00;;;;;;;;;;5109641;28;20564;-65
2022/08/07 06:44:32;;;;;;;0.10;0.10;;;;;;;;;;5104698;28;20362;-66
2022/08/07 06:46:58;;;;;;;0.10;0.10;;;;;;;;;;5108779;28;20286;-66
2022/08/07 06:49:24;;;;;;;0.00;0.00;;;;;;;;;;5105105;28;20254;-66
2022/08/07 06:51:52;;;;;;;0.00;0.00;;;;;;;;;;5107510;28;20249;-66
2022/08/07 06:54:19;;;;;;;0.00;0.00;;;;;;;;;;5106117;28;20476;-66
2022/08/07 06:56:49;;;;;;;0.00;0.00;;;;;;;;;;5106901;28;20533;-67
2022/08/07 06:59:18;;;;;;;0.10;0.10;;;;;;;;;;5106000;28;20196;-66
2022/08/07 07:01:46;;;;;;;0.03;0.03;;;;;;;;;;5106887;28;20541;-68
2022/08/07 07:04:13;;;;;;;0.10;0.10;;;;;;;;;;5106486;28;20210;-66
2022/08/07 07:06:39;;;;;;;0.10;0.10;;;;;;;;;;5105605;28;20518;-65
2022/08/07 07:09:19;;;;;;;0.00;0.00;;;;;;;;;;5106308;28;20232;-66
2022/08/07 07:11:50;;;;;;;0.10;0.10;;;;;;;;;;5105960;28;20575;-65
2022/08/07 07:14:18;;;;;;;0.10;0.10;;;;;;;;;;5105823;28;20214;-64
2022/08/07 07:16:46;;;;;;;0.10;0.10;;;;;;;;;;5105946;28;20244;-66
2022/08/07 07:19:15;;;;;;;0.00;0.00;;;;;;;;;;5106088;28;20225;-66
2022/08/07 07:21:42;;;;;;;0.00;0.00;;;;;;;;;;5105774;28;20241;-65
2022/08/07 07:24:09;;;;;;;0.00;0.00;;;;;;;;;;5106308;28;20280;-65
2022/08/07 07:26:36;;;;;;;0.00;0.00;;;;;;;;;;5104620;28;20309;-65
2022/08/07 07:29:05;;;;;;;0.00;0.00;;;;;;;;;;5107024;28;20246;-65
2022/08/07 07:31:33;;;;;;;0.10;0.10;;;;;;;;;;5103794;28;20258;-66
2022/08/07 07:34:04;;;;;;;0.00;0.00;;;;;;;;;;5107432;28;20375;-64
2022/08/07 07:36:32;;;;;;;0.10;0.10;;;;;;;;;;5104011;28;20330;-64
2022/08/07 07:39:00;;;;;;;0.10;0.10;;;;;;;;;;5107283;28;20200;-64
2022/08/07 07:41:27;;;;;;;0.03;0.03;;;;;;;;;;5103131;28;20315;-64
2022/08/07 07:43:53;;;;;;;0.05;0.05;;;;;;;;;;5107841;28;20509;-65
2022/08/07 07:46:22;;;;;;;0.10;0.10;;;;;;;;;;5102161;28;20423;-65
2022/08/07 07:48:48;;;;;;;0.00;0.00;;;;;;;;;;5108677;28;20238;-65
2022/08/07 07:51:17;;;;;;;0.10;0.10;;;;;;;;;;5101871;28;20285;-65
2022/08/07 07:53:45;;;;;;;0.00;0.00;;;;;;;;;;5109235;28;20208;-65
2022/08/07 07:56:13;;;;;;;0.08;0.08;;;;;;;;;;5101028;28;20259;-66
2022/08/07 07:58:39;;;;;;;0.00;0.00;;;;;;;;;;5109248;28;20265;-65
2022/08/07 08:01:07;;;;;;;0.10;0.10;;;;;;;;;;5100043;28;20251;-66
2022/08/07 08:03:34;;;;;;;0.00;0.00;;;;;;;;;;5110148;28;20205;-66
2022/08/07 08:06:01;;;;;;;0.10;0.10;;;;;;;;;;5099019;28;20246;-64
2022/08/07 08:08:31;;;;;;;0.00;0.00;;;;;;;;;;5111321;28;20500;-65
2022/08/07 08:10:58;;;;;;;0.00;0.00;;;;;;;;;;5098975;28;20242;-66
2022/08/07 08:13:25;;;;;;;0.00;0.00;;;;;;;;;;5111308;28;20214;-66
2022/08/07 08:15:52;;;;;;;0.00;0.00;;;;;;;;;;5098316;28;20260;-65
2022/08/07 08:18:19;;;;;;;0.00;0.00;;;;;;;;;;5111524;28;20272;-65
2022/08/07 08:20:47;;;;;;;0.10;0.10;;;;;;;;;;5096561;28;20246;-65
2022/08/07 08:28:48;;;;;;;0.00;0.00;;;;;;;;;;5084399;28;20416;-65
2022/08/07 08:31:17;;;;;;;0.10;0.10;;;;;;;;;;5100847;28;20525;-64
2022/08/07 08:33:45;;;;;;;0.05;0.05;;;;;;;;;;5108874;28;20385;-65
2022/08/07 08:36:12;;;;;;;0.00;0.00;;;;;;;;;;5100689;28;20297;-64
2022/08/07 08:38:39;;;;;;;0.00;0.00;;;;;;;;;;5108706;28;20201;-65
2022/08/07 08:41:12;;;;;;;0.00;0.00;;;;;;;;;;5100008;28;20307;-64
2022/08/07 08:43:42;;;;;;;0.00;0.00;;;;;;;;;;5108924;28;20287;-65
2022/08/07 08:46:12;;;;;;;0.00;0.00;;;;;;;;;;5100074;28;20244;-65
2022/08/07 08:48:40;;;;;;;0.00;0.00;;;;;;;;;;5108995;28;20220;-65
2022/08/07 08:51:08;;;;;;;0.00;0.00;;;;;;;;;;5099794;28;20482;-66
2022/08/07 08:53:38;;;;;;;0.00;0.00;;;;;;;;;;5109821;28;20227;-65
2022/08/07 08:56:07;;;;;;;0.00;0.00;;;;;;;;;;5099431;28;20294;-65
2022/08/07 08:58:39;;;;;;;0.03;0.03;;;;;;;;;;5109650;28;20207;-65
2022/08/07 09:01:09;;;;;;;0.10;0.10;;;;;;;;;;5099603;28;20264;-66
2022/08/07 09:03:42;;;;;;;0.00;0.00;;;;;;;;;;5109650;28;20206;-67
2022/08/07 09:06:11;;;;;;;0.00;0.00;;;;;;;;;;5099936;28;20318;-65
2022/08/07 09:08:41;;;;;;;0.03;0.03;;;;;;;;;;5109246;28;20368;-65
2022/08/07 09:11:13;;;;;;;0.00;0.00;;;;;;;;;;5099688;28;20298;-66
2022/08/07 09:13:44;;;;;;;0.00;0.00;;;;;;;;;;5109109;28;20278;-65
2022/08/07 09:16:17;;;;;;;0.00;0.00;;;;;;;;;;5100404;28;20426;-65
2022/08/07 09:18:56;;;;;;;0.10;0.10;;;;;;;;;;5108369;28;20377;-66
2022/08/07 09:21:28;;;;;;;0.00;0.00;;;;;;;;;;5101762;28;20237;-66
2022/08/07 09:23:56;;;;;;;0.00;0.00;;;;;;;;;;5106902;28;20216;-66
2022/08/07 09:26:27;;;;;;;0.00;0.00;;;;;;;;;;5101969;28;20248;-65
2022/08/07 09:29:01;;;;;;;0.00;0.00;;;;;;;;;;5107121;28;20221;-65
2022/08/07 09:31:36;;;;;;;0.00;0.00;;;;;;;;;;5102820;28;20237;-66
2022/08/07 09:34:08;;;;;;;0.00;0.00;;;;;;;;;;5109653;28;20202;-65
2022/08/07 09:36:37;;;;;;;0.00;0.00;;;;;;;;;;5106828;28;20238;-65
2022/08/07 09:39:09;;;;;;;0.00;0.00;;;;;;;;;;5109498;28;20206;-66
2022/08/07 09:41:38;;;;;;;0.08;0.08;;;;;;;;;;5106849;28;20395;-64
2022/08/07 09:44:13;;;;;;;0.00;0.00;;;;;;;;;;5109421;28;20202;-64
2022/08/07 09:46:44;;;;;;;0.00;0.00;;;;;;;;;;5107239;28;20317;-65
2022/08/07 09:49:18;;;;;;;0.00;0.00;;;;;;;;;;5108718;28;20536;-65
2022/08/07 09:51:51;;;;;;;0.00;0.00;;;;;;;;;;5106875;28;20247;-66
2022/08/07 09:54:19;;;;;;;0.00;0.00;;;;;;;;;;5108515;28;20206;-67
2022/08/07 09:57:03;;;;;;;0.10;0.10;;;;;;;;;;5108006;28;20484;-64
2022/08/07 09:59:53;;;;;;;0.00;0.00;;;;;;;;;;5093985;28;20404;-65
2022/08/07 10:02:27;;;;;;;0.10;0.10;;;;;;;;;;5110382;28;20256;-65
2022/08/07 10:05:11;;;;;;;0.08;0.08;;;;;;;;;;5105549;28;20229;-65
2022/08/07 10:07:48;;;;;;;0.00;0.00;;;;;;;;;;5077697;28;20238;-65
2022/08/07 10:10:22;;;;;;;0.00;0.00;;;;;;;;;;5076957;28;20227;-65
2022/08/07 10:13:09;;;;;;;0.00;0.00;;;;;;;;;;5118489;28;20191;-65
2022/08/07 10:15:43;;;;;;;0.00;0.00;;;;;;;;;;5093405;28;20491;-65
2022/08/07 10:18:20;;;;;;;0.00;0.00;;;;;;;;;;5115203;28;20206;-66
2022/08/07 10:20:56;;;;;;;0.00;0.00;;;;;;;;;;5099854;28;20245;-65
2022/08/07 10:23:39;;;;;;;0.00;0.00;;;;;;;;;;5113976;28;20261;-64
2022/08/07 10:26:14;;;;;;;0.00;0.00;;;;;;;;;;5102195;28;20308;-65
2022/08/07 10:28:45;;;;;;;0.00;0.00;;;;;;;;;;5111206;28;20269;-64
2022/08/07 10:31:22;;;;;;;0.10;0.10;;;;;;;;;;5102943;28;20242;-66
2022/08/07 10:33:57;;;;;;;0.08;0.08;;;;;;;;;;5110201;28;20255;-64
2022/08/07 10:36:28;;;;;;;0.00;0.00;;;;;;;;;;5104318;28;20301;-65
2022/08/07 10:38:57;;;;;;;0.10;0.10;;;;;;;;;;5109290;28;20545;-65
2022/08/07 10:41:27;;;;;;;0.00;0.00;;;;;;;;;;5104123;28;20264;-66
2022/08/07 10:43:56;;;;;;;0.10;0.10;;;;;;;;;;5108201;28;20439;-66
2022/08/07 10:46:25;;;;;;;0.00;0.00;;;;;;;;;;5103777;28;20250;-65
2022/08/07 10:48:57;;;;;;;0.10;0.10;;;;;;;;;;5109631;28;20237;-66
2022/08/07 10:51:32;;;;;;;0.00;0.00;;;;;;;;;;5104015;28;20311;-65
2022/08/07 10:54:18;;;;;;;0.00;0.00;;;;;;;;;;5108207;28;20202;-65
2022/08/07 10:56:49;;;;;;;0.00;0.00;;;;;;;;;;5106438;28;20313;-66
2022/08/07 10:59:20;;;;;;;0.00;0.00;;;;;;;;;;5105870;28;20394;-65
2022/08/07 11:01:51;;;;;;;0.00;0.00;;;;;;;;;;5106662;28;20234;-66
2022/08/07 11:04:22;;;;;;;0.00;0.00;;;;;;;;;;5105471;28;20207;-66
2022/08/07 11:06:53;;;;;;;0.00;0.00;;;;;;;;;;5107005;28;20414;-65
2022/08/07 11:09:24;;;;;;;0.00;0.00;;;;;;;;;;5105247;28;20209;-66
2022/08/07 11:11:56;;;;;;;0.00;0.00;;;;;;;;;;5107003;28;20264;-65
2022/08/07 11:14:25;;;;;;;0.10;0.10;;;;;;;;;;5105002;28;20238;-66
2022/08/07 11:16:56;;;;;;;0.00;0.00;;;;;;;;;;5107203;28;20394;-66
2022/08/07 11:19:26;;;;;;;0.00;0.00;;;;;;;;;;5104879;28;20284;-66
2022/08/07 11:21:55;;;;;;;0.00;0.00;;;;;;;;;;5107047;28;20242;-66
2022/08/07 11:24:24;;;;;;;0.05;0.05;;;;;;;;;;5104875;28;20203;-64
2022/08/07 11:26:53;;;;;;;0.00;0.00;;;;;;;;;;5106986;28;20343;-64
2022/08/07 11:29:24;;;;;;;0.00;0.00;;;;;;;;;;5104799;28;20203;-64
2022/08/07 11:31:53;;;;;;;0.00;0.00;;;;;;;;;;5106888;28;20302;-66
2022/08/07 11:34:24;;;;;;;0.00;0.00;;;;;;;;;;5104898;28;20311;-66
2022/08/07 11:36:57;;;;;;;0.00;0.00;;;;;;;;;;5106623;28;20250;-64
2022/08/07 11:39:30;;;;;;;0.00;0.00;;;;;;;;;;5104314;28;20458;-65
2022/08/07 11:42:08;;;;;;;0.00;0.00;;;;;;;;;;5107436;28;20238;-66
2022/08/07 11:44:39;;;;;;;0.00;0.00;;;;;;;;;;5103466;28;20198;-65
2022/08/07 11:47:09;;;;;;;0.00;0.00;;;;;;;;;;5108580;28;20564;-66
2022/08/07 11:50:00;;;;;;;0.00;0.00;;;;;;;;;;5103304;28;20230;-64
2022/08/07 11:52:35;;;;;;;0.00;0.00;;;;;;;;;;5093236;28;20489;-65
2022/08/07 11:55:09;;;;;;;0.00;0.00;;;;;;;;;;5102998;28;20407;-65
2022/08/07 11:57:41;;;;;;;0.10;0.10;;;;;;;;;;5091230;28;20518;-65
2022/08/07 12:00:10;;;;;;;0.00;0.00;;;;;;;;;;5103165;28;20226;-65
2022/08/07 12:02:50;;;;;;;0.00;0.00;;;;;;;;;;5091173;28;20264;-65
2022/08/07 12:05:21;;;;;;;0.00;0.00;;;;;;;;;;5094165;28;20230;-64
2022/08/07 12:07:53;;;;;;;0.00;0.00;;;;;;;;;;5116595;28;20515;-64
2022/08/07 12:10:25;;;;;;;0.00;0.00;;;;;;;;;;5093835;28;20352;-64
2022/08/07 12:12:53;;;;;;;0.00;0.00;;;;;;;;;;5115516;28;20243;-65
2022/08/07 12:15:22;;;;;;;0.10;0.10;;;;;;;;;;5094368;28;20237;-65
2022/08/07 12:17:52;;;;;;;0.00;0.00;;;;;;;;;;5116455;28;20191;-65
2022/08/07 12:20:22;;;;;;;0.00;0.00;;;;;;;;;;5094108;28;20367;-65
2022/08/07 12:22:55;;;;;;;0.00;0.00;;;;;;;;;;5116120;28;20190;-66
2022/08/07 12:28:13;;;;;;;0.00;0.00;;;;;;;;;;5113080;28;20517;-67
2022/08/07 12:30:42;;;;;;;0.00;0.00;;;;;;;;;;5096640;28;20617;-66
2022/08/07 12:33:11;;;;;;;0.00;0.00;;;;;;;;;;5113066;28;20198;-66
2022/08/07 12:35:38;;;;;;;0.00;0.00;;;;;;;;;;5096337;28;20240;-66
2022/08/07 12:38:07;;;;;;;0.00;0.00;;;;;;;;;;5113582;28;20270;-64
2022/08/07 12:40:35;;;;;;;0.00;0.00;;;;;;;;;;5095805;28;20244;-64
2022/08/07 12:43:02;;;;;;;0.00;0.00;;;;;;;;;;5114232;28;20371;-65
2022/08/07 12:45:33;;;;;;;0.00;0.00;;;;;;;;;;5095179;28;20238;-65
2022/08/07 12:48:03;;;;;;;0.00;0.00;;;;;;;;;;5114014;28;20214;-66
2022/08/07 12:50:31;;;;;;;0.00;0.00;;;;;;;;;;5095050;28;20533;-66
2022/08/07 12:53:02;;;;;;;0.00;0.00;;;;;;;;;;5114763;28;20199;-66
2022/08/07 12:55:34;;;;;;;0.00;0.00;;;;;;;;;;5095071;28;20237;-66
2022/08/07 12:58:02;;;;;;;0.00;0.00;;;;;;;;;;5114221;28;20347;-64
2022/08/07 13:00:31;;;;;;;0.00;0.00;;;;;;;;;;5095080;28;20427;-67
2022/08/07 13:03:07;;;;;;;0.00;0.00;;;;;;;;;;5114360;28;20210;-66
2022/08/07 13:05:39;;;;;;;0.00;0.00;;;;;;;;;;5095496;28;20329;-64
2022/08/07 13:08:20;;;;;;;0.00;0.00;;;;;;;;;;5116627;28;20191;-65
2022/08/07 13:11:00;;;;;;;0.00;0.00;;;;;;;;;;5101121;28;20396;-65
2022/08/07 13:13:36;;;;;;;0.00;0.00;;;;;;;;;;5114341;28;20199;-65
2022/08/07 13:16:09;;;;;;;0.00;0.00;;;;;;;;;;5103147;28;20240;-65
2022/08/07 13:18:38;;;;;;;0.08;0.08;;;;;;;;;;5113134;28;20273;-66
2022/08/07 13:21:09;;;;;;;0.00;0.00;;;;;;;;;;5103157;28;20260;-65
2022/08/07 13:23:42;;;;;;;0.00;0.00;;;;;;;;;;5113214;28;20447;-65
2022/08/07 13:26:13;;;;;;;0.00;0.00;;;;;;;;;;5103927;28;20249;-66
2022/08/07 13:28:41;;;;;;;0.00;0.00;;;;;;;;;;5112619;28;20278;-65
2022/08/07 13:31:10;;;;;;;0.00;0.00;;;;;;;;;;5103319;28;20234;-65
2022/08/07 13:33:39;;;;;;;0.10;0.10;;;;;;;;;;5112780;28;20232;-66
2022/08/07 13:36:08;;;;;;;0.00;0.00;;;;;;;;;;5102841;28;20237;-65
2022/08/07 13:38:38;;;;;;;0.00;0.00;;;;;;;;;;5113197;28;20226;-65
2022/08/07 13:41:08;;;;;;;0.00;0.00;;;;;;;;;;5102869;28;20237;-65
2022/08/07 13:43:41;;;;;;;0.05;0.05;;;;;;;;;;5112990;28;20209;-64
2022/08/07 13:46:08;;;;;;;0.00;0.00;;;;;;;;;;5103132;28;20279;-65
2022/08/07 13:48:37;;;;;;;0.00;0.00;;;;;;;;;;5112653;28;20283;-65
2022/08/07 13:51:04;;;;;;;0.00;0.00;;;;;;;;;;5102536;28;20257;-65
2022/08/07 13:53:32;;;;;;;0.03;0.03;;;;;;;;;;5113017;28;20213;-65
2022/08/07 13:55:58;;;;;;;0.00;0.00;;;;;;;;;;5102062;28;20257;-65
2022/08/07 14:01:13;;;;;;;0.08;0.08;;;;;;;;;;5103108;28;20339;-64
2022/08/07 14:03:40;;;;;;;0.00;0.00;;;;;;;;;;5112104;28;20278;-65
2022/08/07 14:06:07;;;;;;;0.00;0.00;;;;;;;;;;5102932;28;20238;-65
2022/08/07 14:08:36;;;;;;;0.00;0.00;;;;;;;;;;5112316;28;20202;-64
2022/08/07 14:11:05;;;;;;;0.00;0.00;;;;;;;;;;5102191;28;20236;-64
2022/08/07 14:13:32;;;;;;;0.10;0.10;;;;;;;;;;5112664;28;20438;-64
2022/08/07 14:16:01;;;;;;;0.00;0.00;;;;;;;;;;5101248;28;20248;-65
2022/08/07 14:18:31;;;;;;;0.10;0.10;;;;;;;;;;5112770;28;20242;-65
2022/08/07 14:21:03;;;;;;;0.00;0.00;;;;;;;;;;5101380;28;20361;-65
2022/08/07 14:23:31;;;;;;;0.00;0.00;;;;;;;;;;5112654;28;20237;-66
2022/08/07 14:25:59;;;;;;;0.00;0.00;;;;;;;;;;5101102;28;20242;-65
2022/08/07 14:28:26;;;;;;;0.00;0.00;;;;;;;;;;5113383;28;20278;-65
2022/08/07 14:30:53;;;;;;;0.00;0.00;;;;;;;;;;5100437;28;20250;-65
2022/08/07 14:33:20;;;;;;;0.00;0.00;;;;;;;;;;5114023;28;20230;-64
2022/08/07 14:35:48;;;;;;;0.00;0.00;;;;;;;;;;5099684;28;20316;-65
2022/08/07 14:38:23;;;;;;;0.00;0.00;;;;;;;;;;5114402;28;20241;-65
2022/08/07 14:40:53;;;;;;;0.00;0.00;;;;;;;;;;5099914;28;20237;-66
2022/08/07 14:43:21;;;;;;;0.00;0.00;;;;;;;;;;5113712;28;20574;-65
2022/08/07 14:45:49;;;;;;;0.00;0.00;;;;;;;;;;5099839;28;20295;-66
2022/08/07 14:48:17;;;;;;;0.00;0.00;;;;;;;;;;5113910;28;20404;-65
2022/08/07 14:50:45;;;;;;;0.00;0.00;;;;;;;;;;5098724;28;20309;-65
2022/08/07 14:53:13;;;;;;;0.00;0.00;;;;;;;;;;5114257;28;20257;-65
2022/08/07 14:55:43;;;;;;;0.00;0.00;;;;;;;;;;5097974;28;20257;-64
2022/08/07 14:58:11;;;;;;;0.00;0.00;;;;;;;;;;5114705;28;20390;-66
2022/08/07 15:00:39;;;;;;;0.00;0.00;;;;;;;;;;5097398;28;20238;-66
2022/08/07 15:03:06;;;;;;;0.00;0.00;;;;;;;;;;5115351;28;20354;-65
2022/08/07 15:05:33;;;;;;;0.00;0.00;;;;;;;;;;5097358;28;20238;-66